Time;durP1;ratioP1;P1;durP2;ratioP2;P2;SDS_P1;SDS_P2;PMS_P1;PMS_P2;Temp;Humidity;BMP_temperature;BMP_pressure;BME280_temperature;BME280_humidity;BME280_pressure;Samples;Min_cycle;Max_cycle;Signal;HPM_P1;HPM_P2
2023/03/04 00:01:09;;;;;;;6.43;1.40;;;5.90;99.90;;;;;;4166955;28;20053;-86
2023/03/04 00:03:13;;;;;;;13.20;1.83;;;5.90;99.90;;;;;;4184110;28;20060;-86
2023/03/04 00:05:14;;;;;;;12.15;1.60;;;5.90;99.90;;;;;;4183931;28;20045;-86
2023/03/04 00:07:17;;;;;;;11.80;1.75;;;5.90;99.90;;;;;;4165973;28;20506;-86
2023/03/04 00:09:18;;;;;;;11.45;1.42;;;6.00;99.90;;;;;;4183638;28;20056;-86
2023/03/04 00:11:19;;;;;;;12.52;1.58;;;5.90;99.90;;;;;;4182944;28;20048;-86
2023/03/04 00:13:20;;;;;;;5.95;1.05;;;6.00;99.90;;;;;;4182837;28;20044;-86
2023/03/04 00:15:21;;;;;;;8.55;1.42;;;5.90;99.90;;;;;;4182524;28;20090;-86
2023/03/04 00:17:22;;;;;;;14.13;2.00;;;6.00;99.90;;;;;;4182885;28;20045;-86
2023/03/04 00:19:23;;;;;;;4.35;1.27;;;6.00;99.90;;;;;;4182529;28;20087;-86
2023/03/04 00:21:24;;;;;;;18.67;2.00;;;6.00;99.90;;;;;;4182971;28;20037;-86
2023/03/04 00:23:25;;;;;;;6.47;1.83;;;5.90;99.90;;;;;;4182777;28;20210;-86
2023/03/04 00:25:25;;;;;;;10.57;1.17;;;5.90;99.90;;;;;;4181962;28;20068;-86
2023/03/04 00:27:27;;;;;;;15.48;1.80;;;5.90;99.90;;;;;;4182400;28;20492;-86
2023/03/04 00:29:28;;;;;;;9.82;1.25;;;6.10;99.90;;;;;;4182275;28;20036;-86
2023/03/04 00:31:30;;;;;;;12.95;1.48;;;5.90;99.90;;;;;;4182439;28;20454;-86
2023/03/04 00:33:30;;;;;;;13.57;1.65;;;5.90;99.90;;;;;;4164797;28;20493;-86
2023/03/04 00:35:32;;;;;;;13.93;1.55;;;5.90;99.90;;;;;;4182594;28;20140;-86
2023/03/04 00:37:33;;;;;;;8.68;1.70;;;5.90;99.90;;;;;;4182461;28;20041;-86
2023/03/04 00:39:33;;;;;;;14.07;1.92;;;5.90;99.90;;;;;;4181865;28;20102;-85
2023/03/04 00:41:34;;;;;;;12.00;1.50;;;5.90;99.90;;;;;;4182237;28;20117;-85
2023/03/04 00:43:35;;;;;;;10.45;1.70;;;6.00;99.90;;;;;;4182671;28;20037;-86
2023/03/04 00:45:37;;;;;;;9.68;1.15;;;5.90;99.90;;;;;;4165203;28;20076;-86
2023/03/04 00:47:38;;;;;;;9.73;2.08;;;5.90;99.90;;;;;;4182979;28;20462;-86
2023/03/04 00:49:39;;;;;;;7.43;1.02;;;5.90;99.90;;;;;;4182526;28;20045;-86
2023/03/04 00:51:40;;;;;;;12.38;1.50;;;5.90;99.90;;;;;;4182534;28;20559;-86
2023/03/04 00:53:40;;;;;;;6.43;1.45;;;5.90;99.90;;;;;;4164864;28;20572;-86
2023/03/04 00:55:41;;;;;;;6.72;1.10;;;6.10;99.90;;;;;;4182615;28;20059;-86
2023/03/04 00:57:43;;;;;;;8.38;1.10;;;6.00;99.90;;;;;;4182481;28;20120;-86
2023/03/04 00:59:45;;;;;;;8.77;2.15;;;5.90;99.90;;;;;;4182274;28;20041;-86
2023/03/04 01:01:45;;;;;;;8.27;1.45;;;5.90;99.90;;;;;;4182532;28;20049;-86
2023/03/04 01:03:46;;;;;;;11.90;2.33;;;5.90;99.90;;;;;;4182218;28;20114;-86
2023/03/04 01:05:48;;;;;;;10.02;1.20;;;5.90;99.90;;;;;;4165583;28;20053;-85
2023/03/04 01:07:49;;;;;;;11.80;2.15;;;5.90;99.90;;;;;;4182628;28;20044;-87
2023/03/04 01:09:49;;;;;;;18.67;2.25;;;5.90;99.90;;;;;;4164822;28;20555;-87
2023/03/04 01:11:50;;;;;;;8.23;2.05;;;5.90;99.90;;;;;;4182656;28;20052;-87
2023/03/04 01:13:51;;;;;;;9.25;1.77;;;6.10;99.90;;;;;;4182751;28;20045;-86
2023/03/04 01:15:52;;;;;;;10.43;1.60;;;6.10;99.90;;;;;;4182226;28;20037;-86
2023/03/04 01:17:53;;;;;;;11.43;1.25;;;5.80;99.90;;;;;;4164342;28;20044;-86
2023/03/04 01:19:54;;;;;;;13.50;1.92;;;5.80;99.90;;;;;;4182469;28;20120;-86
2023/03/04 01:21:55;;;;;;;10.07;1.50;;;6.20;99.90;;;;;;4182431;28;20413;-86
2023/03/04 01:23:58;;;;;;;9.15;2.03;;;6.10;99.90;;;;;;4182080;28;20155;-87
2023/03/04 01:25:59;;;;;;;14.48;1.65;;;5.90;99.90;;;;;;4181967;28;20098;-86
2023/03/04 01:27:59;;;;;;;8.07;1.38;;;5.80;99.90;;;;;;4181692;28;20102;-86
2023/03/04 01:30:00;;;;;;;12.50;1.83;;;5.70;99.90;;;;;;4163965;28;20049;-86
2023/03/04 01:32:03;;;;;;;7.00;1.27;;;5.20;99.90;;;;;;4182109;28;20051;-86
2023/03/04 01:34:04;;;;;;;13.00;1.65;;;5.70;99.90;;;;;;4182101;28;20111;-86
2023/03/04 01:36:07;;;;;;;11.20;2.78;;;6.60;99.90;;;;;;4181906;28;20048;-86
2023/03/04 01:38:09;;;;;;;21.45;3.13;;;5.70;99.90;;;;;;4181392;28;20413;-86
2023/03/04 01:40:11;;;;;;;18.58;3.72;;;6.20;99.90;;;;;;4182145;28;20055;-87
2023/03/04 01:42:23;;;;;;;9.95;1.73;;;5.70;99.90;;;;;;4182224;28;20120;-87
2023/03/04 01:44:24;;;;;;;13.77;2.80;;;5.70;99.90;;;;;;4181968;28;20052;-87
2023/03/04 01:46:28;;;;;;;9.73;1.27;;;5.70;99.90;;;;;;4181664;28;20096;-87
2023/03/04 01:48:35;;;;;;;9.93;3.00;;;5.70;99.90;;;;;;4181505;28;20041;-87
2023/03/04 01:50:36;;;;;;;9.45;1.85;;;5.70;99.90;;;;;;4181782;28;20390;-86
2023/03/04 01:52:39;;;;;;;12.07;2.65;;;5.70;99.90;;;;;;4181712;28;20095;-87
2023/03/04 01:54:40;;;;;;;14.23;2.25;;;5.70;99.90;;;;;;4180361;28;20045;-87
2023/03/04 01:56:44;;;;;;;14.40;1.65;;;6.30;99.90;;;;;;4164044;28;20046;-87
2023/03/04 01:59:07;;;;;;;13.57;1.50;;;5.70;99.90;;;;;;4163694;28;20042;-87
2023/03/04 02:01:16;;;;;;;14.65;1.80;;;5.70;99.90;;;;;;4181958;28;20485;-87
2023/03/04 02:03:21;;;;;;;10.40;1.73;;;5.90;99.90;;;;;;4181784;28;20048;-86
2023/03/04 02:05:21;;;;;;;15.40;1.40;;;6.20;99.90;;;;;;4181934;28;20638;-85
2023/03/04 02:07:22;;;;;;;16.38;3.72;;;5.60;99.90;;;;;;4181201;28;20045;-85
2023/03/04 02:09:23;;;;;;;13.27;2.03;;;5.60;99.90;;;;;;4180655;28;20036;-84
2023/03/04 02:11:24;;;;;;;10.30;1.67;;;5.60;99.90;;;;;;4181478;28;20397;-85
2023/03/04 02:13:26;;;;;;;14.27;2.05;;;5.60;99.90;;;;;;4182148;28;20045;-86
2023/03/04 02:15:28;;;;;;;11.05;2.40;;;5.60;99.90;;;;;;4181560;28;20071;-85
2023/03/04 02:17:31;;;;;;;18.90;2.67;;;5.60;99.90;;;;;;4181085;28;20033;-85
2023/03/04 02:19:44;;;;;;;16.10;2.38;;;5.60;99.90;;;;;;4181258;28;20040;-85
2023/03/04 02:21:45;;;;;;;16.65;1.90;;;5.60;99.90;;;;;;4162848;28;20063;-85
2023/03/04 02:24:09;;;;;;;17.17;1.92;;;5.60;99.90;;;;;;4163364;28;20481;-85
2023/03/04 02:26:17;;;;;;;7.20;1.42;;;5.60;99.90;;;;;;4180841;28;20053;-84
2023/03/04 02:28:18;;;;;;;7.63;1.15;;;5.20;99.90;;;;;;4180890;28;20041;-85
2023/03/04 02:30:22;;;;;;;10.98;2.13;;;5.70;99.90;;;;;;4181046;28;20503;-85
2023/03/04 02:32:23;;;;;;;10.07;1.95;;;4.80;99.90;;;;;;4180511;28;20037;-86
2023/03/04 02:34:48;;;;;;;15.25;1.42;;;5.70;99.90;;;;;;4181234;28;20396;-86
2023/03/04 02:36:52;;;;;;;6.32;1.42;;;5.80;99.90;;;;;;4168622;28;20053;-86
2023/03/04 02:38:54;;;;;;;8.38;1.33;;;6.20;99.90;;;;;;4181161;28;20036;-86
2023/03/04 02:40:57;;;;;;;7.53;1.38;;;5.60;99.90;;;;;;4164329;28;20058;-86
2023/03/04 02:42:59;;;;;;;11.40;1.77;;;5.60;99.90;;;;;;4181725;28;20052;-86
2023/03/04 02:45:01;;;;;;;10.35;1.95;;;5.60;99.90;;;;;;4163833;28;20041;-86
2023/03/04 02:47:04;;;;;;;12.25;1.45;;;5.60;99.90;;;;;;4181191;28;20045;-86
2023/03/04 02:49:04;;;;;;;9.38;1.42;;;5.70;99.90;;;;;;4181423;28;20120;-86
2023/03/04 02:51:05;;;;;;;9.85;1.65;;;5.60;99.90;;;;;;4163555;28;20061;-86
2023/03/04 02:53:07;;;;;;;15.15;1.52;;;5.60;99.90;;;;;;4181364;28;20037;-86
2023/03/04 02:55:08;;;;;;;10.85;2.58;;;5.60;99.90;;;;;;4182431;28;20045;-85
2023/03/04 02:57:11;;;;;;;13.82;1.30;;;5.60;99.90;;;;;;4164755;28;20509;-86
2023/03/04 02:59:12;;;;;;;8.45;1.65;;;5.60;99.90;;;;;;4163669;28;20046;-86
2023/03/04 03:01:13;;;;;;;15.27;1.55;;;5.70;99.90;;;;;;4181320;28;20056;-86
2023/03/04 03:03:14;;;;;;;9.60;1.10;;;5.60;99.90;;;;;;4181176;28;20163;-86
2023/03/04 03:05:15;;;;;;;13.07;1.50;;;5.60;99.90;;;;;;4181508;28;20040;-86
2023/03/04 03:07:16;;;;;;;12.57;2.17;;;5.70;99.90;;;;;;4184554;28;20053;-86
2023/03/04 03:09:19;;;;;;;11.77;1.70;;;5.70;99.90;;;;;;4166077;28;20081;-86
2023/03/04 03:11:19;;;;;;;15.00;2.35;;;5.60;99.90;;;;;;4184998;28;20420;-86
2023/03/04 03:13:20;;;;;;;11.20;1.67;;;5.60;99.90;;;;;;4185736;28;20056;-86
2023/03/04 03:15:21;;;;;;;14.40;2.47;;;5.60;99.90;;;;;;4167487;28;20054;-86
2023/03/04 03:17:22;;;;;;;6.68;1.25;;;5.70;99.90;;;;;;4183889;28;20409;-86
2023/03/04 03:19:23;;;;;;;7.10;1.20;;;5.60;99.90;;;;;;4183831;28;20044;-85
2023/03/04 03:21:24;;;;;;;11.05;1.92;;;5.70;99.90;;;;;;4183970;28;20048;-86
2023/03/04 03:23:25;;;;;;;7.38;1.25;;;5.60;99.90;;;;;;4183670;28;20102;-86
2023/03/04 03:25:26;;;;;;;12.95;1.50;;;5.70;99.90;;;;;;4184356;28;20079;-86
2023/03/04 03:27:27;;;;;;;9.50;1.38;;;5.70;99.90;;;;;;4183762;28;20049;-85
2023/03/04 03:29:28;;;;;;;17.00;1.92;;;5.70;99.90;;;;;;4184016;28;20033;-86
2023/03/04 03:31:30;;;;;;;9.55;1.30;;;5.70;99.90;;;;;;4184094;28;20116;-86
2023/03/04 03:33:31;;;;;;;16.85;3.28;;;5.70;99.90;;;;;;4183734;28;20103;-86
2023/03/04 03:35:31;;;;;;;7.35;1.10;;;5.70;99.90;;;;;;4183491;28;20510;-86
2023/03/04 03:37:32;;;;;;;11.13;1.27;;;5.60;99.90;;;;;;4183708;28;20041;-89
2023/03/04 03:39:39;;;;;;;9.80;1.83;;;5.70;99.90;;;;;;4184044;28;20052;-88
2023/03/04 03:41:40;;;;;;;12.93;1.05;;;5.70;99.90;;;;;;4184184;28;20053;-89
2023/03/04 03:43:41;;;;;;;13.35;2.17;;;5.70;99.90;;;;;;4184004;28;20053;-88
2023/03/04 03:45:42;;;;;;;10.38;1.20;;;5.70;99.90;;;;;;4166961;28;20501;-89
2023/03/04 03:47:42;;;;;;;4.82;0.90;;;5.70;99.90;;;;;;4183976;28;20552;-88
2023/03/04 03:49:43;;;;;;;11.40;1.30;;;5.70;99.90;;;;;;4183740;28;20128;-86
2023/03/04 03:51:44;;;;;;;9.82;1.45;;;5.60;99.90;;;;;;4183825;28;20158;-85
2023/03/04 03:53:46;;;;;;;7.18;1.00;;;4.80;99.90;;;;;;4166067;28;20142;-86
2023/03/04 03:55:47;;;;;;;7.05;1.10;;;5.70;99.90;;;;;;4186679;28;20068;-85
2023/03/04 03:57:48;;;;;;;9.27;1.20;;;5.70;99.90;;;;;;4166739;28;20129;-85
2023/03/04 03:59:50;;;;;;;3.95;0.82;;;5.60;99.90;;;;;;4183190;28;20029;-85
2023/03/04 04:01:52;;;;;;;5.43;1.00;;;5.70;99.90;;;;;;4165526;28;20064;-85
2023/03/04 04:03:53;;;;;;;9.77;1.45;;;5.70;99.90;;;;;;4182526;28;20406;-85
2023/03/04 04:05:54;;;;;;;12.10;1.52;;;5.70;99.90;;;;;;4183478;28;20052;-85
2023/03/04 04:07:54;;;;;;;12.60;2.45;;;4.90;99.90;;;;;;4183812;28;20091;-85
2023/03/04 04:09:55;;;;;;;7.65;1.25;;;6.10;99.90;;;;;;4183598;28;20055;-85
2023/03/04 04:11:56;;;;;;;6.65;1.10;;;5.70;99.90;;;;;;4183779;28;20465;-85
2023/03/04 04:13:57;;;;;;;11.13;1.15;;;5.70;99.90;;;;;;4183645;28;20044;-84
2023/03/04 04:15:59;;;;;;;6.82;0.85;;;5.70;99.90;;;;;;4183996;28;20473;-84
2023/03/04 04:18:00;;;;;;;4.15;0.82;;;5.70;99.90;;;;;;4182366;28;20497;-84
2023/03/04 04:20:04;;;;;;;11.50;1.00;;;5.90;99.90;;;;;;4183697;28;20056;-84
2023/03/04 04:22:04;;;;;;;11.85;2.63;;;5.70;99.90;;;;;;4182841;28;20041;-84
2023/03/04 04:24:05;;;;;;;5.10;0.70;;;5.70;99.90;;;;;;4183303;28;20138;-84
2023/03/04 04:26:06;;;;;;;2.80;1.05;;;5.70;99.90;;;;;;4183002;28;20048;-85
2023/03/04 04:28:07;;;;;;;8.27;1.33;;;5.70;99.90;;;;;;4183520;28;20107;-84
2023/03/04 04:30:09;;;;;;;9.55;2.25;;;5.70;99.90;;;;;;4183420;28;20481;-85
2023/03/04 04:32:12;;;;;;;5.28;0.90;;;5.60;99.90;;;;;;4183613;28;20049;-84
2023/03/04 04:34:12;;;;;;;5.10;0.90;;;5.90;99.90;;;;;;4183324;28;20041;-84
2023/03/04 04:36:15;;;;;;;4.25;0.90;;;5.70;99.90;;;;;;4183497;28;20446;-84
2023/03/04 04:38:21;;;;;;;5.32;0.63;;;5.70;99.90;;;;;;4165356;28;20148;-84
2023/03/04 04:40:22;;;;;;;7.72;0.80;;;5.70;99.90;;;;;;4164984;28;20045;-84
2023/03/04 04:42:23;;;;;;;8.57;1.08;;;5.60;99.90;;;;;;4183366;28;20080;-84
2023/03/04 04:44:24;;;;;;;10.25;1.00;;;5.70;99.90;;;;;;4183200;28;20048;-84
2023/03/04 04:46:25;;;;;;;4.25;0.82;;;5.70;99.90;;;;;;4183388;28;20069;-84
2023/03/04 04:48:26;;;;;;;9.77;1.05;;;5.70;99.90;;;;;;4183122;28;20396;-84
2023/03/04 04:50:27;;;;;;;9.45;1.17;;;6.00;99.90;;;;;;4181934;28;20041;-84
2023/03/04 04:52:28;;;;;;;5.00;0.85;;;5.60;99.90;;;;;;4182072;28;20404;-84
2023/03/04 04:54:30;;;;;;;8.63;1.48;;;6.00;99.90;;;;;;4182865;28;20408;-84
2023/03/04 04:56:32;;;;;;;6.32;1.60;;;5.70;99.90;;;;;;4183090;28;20059;-84
2023/03/04 04:58:34;;;;;;;8.27;1.75;;;5.70;99.90;;;;;;4183103;28;20029;-84
2023/03/04 05:00:35;;;;;;;4.88;0.90;;;5.70;99.90;;;;;;4182879;28;20049;-85
2023/03/04 05:02:37;;;;;;;8.60;1.13;;;6.30;99.90;;;;;;4165121;28;20241;-84
2023/03/04 05:04:38;;;;;;;19.80;1.58;;;5.80;99.90;;;;;;4183075;28;20064;-84
2023/03/04 05:06:40;;;;;;;6.78;1.55;;;6.10;99.90;;;;;;4182337;28;20049;-84
2023/03/04 05:08:40;;;;;;;14.57;1.15;;;5.60;99.90;;;;;;4165404;28;20050;-84
2023/03/04 05:10:42;;;;;;;7.78;0.80;;;5.60;99.90;;;;;;4182919;28;20044;-84
2023/03/04 05:12:43;;;;;;;7.80;0.80;;;5.60;99.90;;;;;;4182610;28;20055;-84
2023/03/04 05:14:44;;;;;;;13.35;1.10;;;5.90;99.90;;;;;;4182551;28;20623;-84
2023/03/04 05:16:46;;;;;;;6.25;1.00;;;5.70;99.90;;;;;;4182981;28;20045;-84
2023/03/04 05:18:48;;;;;;;7.85;1.02;;;5.60;99.90;;;;;;4182216;28;20043;-84
2023/03/04 05:20:57;;;;;;;7.95;0.90;;;5.50;99.90;;;;;;4184179;28;20115;-84
2023/03/04 05:22:58;;;;;;;9.27;1.05;;;5.60;99.90;;;;;;4183941;28;20049;-84
2023/03/04 05:24:59;;;;;;;10.80;1.63;;;5.60;99.90;;;;;;4182096;28;20053;-84
2023/03/04 05:27:00;;;;;;;8.55;1.08;;;5.50;99.90;;;;;;4164951;28;20061;-84
2023/03/04 05:29:03;;;;;;;10.60;1.40;;;5.60;99.90;;;;;;4183051;28;20489;-84
2023/03/04 05:31:04;;;;;;;4.05;0.73;;;6.10;99.90;;;;;;4184441;28;20049;-84
2023/03/04 05:33:07;;;;;;;10.88;1.77;;;6.10;99.90;;;;;;4188537;28;20048;-84
2023/03/04 05:35:08;;;;;;;10.73;2.05;;;5.60;99.90;;;;;;4187631;28;20045;-85
2023/03/04 05:37:09;;;;;;;11.02;2.15;;;5.60;99.90;;;;;;4188220;28;20041;-84
2023/03/04 05:39:10;;;;;;;13.18;1.05;;;5.60;99.90;;;;;;4188007;28;20048;-84
2023/03/04 05:41:12;;;;;;;4.25;1.00;;;6.00;99.90;;;;;;4189104;28;20037;-84
2023/03/04 05:43:14;;;;;;;10.23;1.63;;;5.60;99.90;;;;;;4188794;28;20045;-84
2023/03/04 05:45:17;;;;;;;14.77;1.50;;;5.70;99.90;;;;;;4170291;28;20045;-84
2023/03/04 05:47:18;;;;;;;15.95;2.33;;;5.60;99.90;;;;;;4169641;28;20041;-84
2023/03/04 05:49:19;;;;;;;14.30;1.23;;;5.50;99.90;;;;;;4187810;28;20080;-85
2023/03/04 05:51:21;;;;;;;11.32;2.08;;;5.00;99.90;;;;;;4187657;28;20048;-84
2023/03/04 05:53:22;;;;;;;7.90;2.15;;;5.50;99.90;;;;;;4188941;28;20048;-85
2023/03/04 05:55:26;;;;;;;8.00;0.88;;;5.50;99.90;;;;;;4193300;28;20036;-86
2023/03/04 05:57:27;;;;;;;11.48;1.55;;;5.60;99.90;;;;;;4195335;28;20071;-85
2023/03/04 05:59:28;;;;;;;9.30;1.85;;;5.80;99.90;;;;;;4170997;28;20041;-85
2023/03/04 06:01:30;;;;;;;9.25;1.25;;;5.60;99.90;;;;;;4186901;28;20102;-85
2023/03/04 06:03:30;;;;;;;10.70;1.67;;;6.20;99.90;;;;;;4186439;28;20040;-85
2023/03/04 06:05:31;;;;;;;11.82;1.48;;;6.40;99.90;;;;;;4186857;28;20045;-84
2023/03/04 06:07:32;;;;;;;8.38;1.42;;;5.60;99.90;;;;;;4186318;28;20056;-84
2023/03/04 06:09:33;;;;;;;10.68;1.30;;;5.60;99.90;;;;;;4164526;28;20087;-85
2023/03/04 06:11:33;;;;;;;8.13;1.40;;;5.60;99.90;;;;;;4187196;28;20044;-85
2023/03/04 06:13:37;;;;;;;11.10;1.20;;;6.00;99.90;;;;;;4167959;28;20482;-84
2023/03/04 06:15:38;;;;;;;7.45;0.85;;;5.50;99.90;;;;;;4167127;28;20077;-84
2023/03/04 06:17:42;;;;;;;7.63;0.90;;;5.60;99.90;;;;;;4181562;28;20045;-84
2023/03/04 06:19:42;;;;;;;6.22;0.93;;;6.20;99.90;;;;;;4180971;28;20049;-84
2023/03/04 06:21:43;;;;;;;5.25;0.90;;;5.90;99.90;;;;;;4181170;28;20588;-84
2023/03/04 06:23:44;;;;;;;8.00;0.80;;;5.70;99.90;;;;;;4181298;28;20489;-84
2023/03/04 06:25:45;;;;;;;7.43;1.27;;;5.50;99.90;;;;;;4181451;28;20059;-84
2023/03/04 06:27:45;;;;;;;6.90;0.80;;;6.20;99.90;;;;;;4163197;28;20038;-84
2023/03/04 06:29:47;;;;;;;4.40;0.95;;;5.50;99.90;;;;;;4181309;28;20354;-85
2023/03/04 06:31:49;;;;;;;10.20;2.35;;;5.50;99.90;;;;;;4163677;28;20521;-85
2023/03/04 06:33:49;;;;;;;6.15;1.13;;;5.50;99.90;;;;;;4163408;28;20042;-85
2023/03/04 06:35:54;;;;;;;5.20;0.80;;;5.50;99.90;;;;;;4163478;28;20056;-85
2023/03/04 06:37:56;;;;;;;12.15;1.70;;;6.30;99.90;;;;;;4163136;28;20053;-85
2023/03/04 06:39:56;;;;;;;7.05;1.83;;;5.50;99.90;;;;;;4181451;28;20131;-84
2023/03/04 06:41:58;;;;;;;4.63;1.20;;;5.50;99.90;;;;;;4184202;28;20052;-85
2023/03/04 06:44:00;;;;;;;9.13;0.93;;;5.50;99.90;;;;;;4184900;28;20037;-84
2023/03/04 06:46:02;;;;;;;12.75;2.03;;;5.50;99.90;;;;;;4184442;28;20094;-85
2023/03/04 06:48:03;;;;;;;10.02;1.40;;;5.50;99.90;;;;;;4184554;28;20496;-84
2023/03/04 06:50:04;;;;;;;14.20;1.27;;;5.50;99.90;;;;;;4184425;28;20073;-85
2023/03/04 06:52:05;;;;;;;7.93;1.50;;;5.50;99.90;;;;;;4184496;28;20052;-84
2023/03/04 06:54:08;;;;;;;10.15;1.90;;;5.50;99.90;;;;;;4184502;28;20130;-85
2023/03/04 06:56:11;;;;;;;11.50;1.33;;;5.60;99.90;;;;;;4184698;28;20044;-85
2023/03/04 06:58:13;;;;;;;10.70;1.50;;;6.00;99.90;;;;;;4184899;28;20611;-85
2023/03/04 07:00:14;;;;;;;4.70;1.40;;;5.60;99.90;;;;;;4184463;28;20041;-84
2023/03/04 07:02:15;;;;;;;6.13;1.05;;;5.60;99.90;;;;;;4184082;28;20071;-86
2023/03/04 07:04:15;;;;;;;7.25;1.02;;;5.60;99.90;;;;;;4184727;28;20463;-83
2023/03/04 07:06:19;;;;;;;5.22;0.70;;;6.20;99.90;;;;;;4184032;28;20041;-85
2023/03/04 07:08:20;;;;;;;8.90;1.40;;;5.60;99.90;;;;;;4184102;28;20044;-85
2023/03/04 07:10:21;;;;;;;4.78;0.70;;;5.70;99.90;;;;;;4184658;28;20413;-85
2023/03/04 07:12:22;;;;;;;7.38;0.82;;;5.60;99.90;;;;;;4184498;28;20048;-85
2023/03/04 07:14:24;;;;;;;6.80;0.88;;;5.70;99.90;;;;;;4184244;28;20545;-85
2023/03/04 07:16:26;;;;;;;6.65;0.88;;;5.70;99.90;;;;;;4184299;28;20041;-85
2023/03/04 07:18:27;;;;;;;4.10;0.77;;;5.70;99.90;;;;;;4166092;28;20127;-85
2023/03/04 07:20:28;;;;;;;6.03;0.93;;;5.70;99.90;;;;;;4183629;28;20127;-85
2023/03/04 07:22:29;;;;;;;5.05;0.75;;;5.80;99.90;;;;;;4184232;28;20041;-85
2023/03/04 07:24:30;;;;;;;9.32;1.13;;;5.80;99.90;;;;;;4165659;28;20472;-84
2023/03/04 07:26:31;;;;;;;4.05;1.70;;;5.80;99.90;;;;;;4183811;28;20041;-85
2023/03/04 07:28:32;;;;;;;6.63;1.27;;;5.70;99.90;;;;;;4184018;28;20045;-85
2023/03/04 07:30:33;;;;;;;5.65;1.08;;;5.70;99.90;;;;;;4183804;28;20044;-85
2023/03/04 07:32:34;;;;;;;9.90;1.38;;;5.80;99.90;;;;;;4183526;28;20045;-85
2023/03/04 07:34:35;;;;;;;12.75;1.50;;;5.90;99.90;;;;;;4183265;28;20045;-85
2023/03/04 07:36:36;;;;;;;19.75;1.80;;;5.80;99.90;;;;;;4183912;28;20064;-85
2023/03/04 07:38:37;;;;;;;15.82;2.55;;;5.80;99.90;;;;;;4166132;28;20452;-85
2023/03/04 07:40:38;;;;;;;9.18;1.60;;;5.80;99.90;;;;;;4183882;28;20057;-85
2023/03/04 07:42:40;;;;;;;17.35;2.95;;;5.80;99.90;;;;;;4183627;28;20088;-85
2023/03/04 07:44:42;;;;;;;7.63;1.33;;;5.90;99.90;;;;;;4183260;28;20080;-85
2023/03/04 07:46:43;;;;;;;9.13;1.13;;;5.90;99.90;;;;;;4183650;28;20489;-85
2023/03/04 07:48:44;;;;;;;21.35;2.53;;;5.90;99.90;;;;;;4183651;28;20083;-85
2023/03/04 07:50:45;;;;;;;15.63;3.38;;;5.90;99.90;;;;;;4183783;28;20053;-85
2023/03/04 07:52:49;;;;;;;12.70;1.77;;;5.80;99.90;;;;;;4182586;28;20048;-85
2023/03/04 07:54:50;;;;;;;21.35;1.98;;;5.90;99.90;;;;;;4186634;28;20037;-84
2023/03/04 07:56:52;;;;;;;17.10;2.63;;;6.20;99.90;;;;;;4183618;28;20076;-85
2023/03/04 07:58:53;;;;;;;17.33;2.58;;;5.80;99.90;;;;;;4183327;28;20044;-85
2023/03/04 08:00:54;;;;;;;24.95;2.58;;;5.90;99.90;;;;;;4183616;28;20052;-85
2023/03/04 08:02:55;;;;;;;16.67;1.80;;;5.80;99.90;;;;;;4166083;28;20042;-85
2023/03/04 08:04:55;;;;;;;18.85;2.58;;;5.80;99.90;;;;;;4183614;28;20460;-85
2023/03/04 08:06:57;;;;;;;21.92;1.90;;;6.10;99.90;;;;;;4183952;28;20049;-85
2023/03/04 08:09:02;;;;;;;17.55;2.97;;;5.80;99.90;;;;;;4183649;28;20052;-85
2023/03/04 08:11:04;;;;;;;25.90;2.80;;;5.80;99.90;;;;;;4184167;28;20049;-85
2023/03/04 08:13:06;;;;;;;19.23;2.35;;;5.90;99.90;;;;;;4183886;28;20045;-85
2023/03/04 08:15:08;;;;;;;21.95;3.75;;;5.90;99.90;;;;;;4183271;28;20512;-85
2023/03/04 08:17:09;;;;;;;26.25;3.45;;;5.90;99.90;;;;;;4184176;28;20493;-85
2023/03/04 08:19:11;;;;;;;21.77;3.97;;;6.40;99.90;;;;;;4183267;28;20072;-84
2023/03/04 08:21:20;;;;;;;17.33;2.10;;;6.00;99.90;;;;;;4183546;28;20052;-84
2023/03/04 08:23:21;;;;;;;;;;;5.90;99.90;;;;;;4183892;28;20049;-85
2023/03/04 08:25:22;;;;;;;10.35;1.65;;;6.00;99.90;;;;;;4183569;28;20356;-86
2023/03/04 08:27:24;;;;;;;20.35;3.05;;;5.90;99.90;;;;;;4165446;28;20068;-85
2023/03/04 08:29:26;;;;;;;18.60;2.75;;;5.00;99.90;;;;;;4183629;28;20075;-85
2023/03/04 08:31:28;;;;;;;20.58;3.15;;;6.00;99.90;;;;;;4183490;28;20049;-85
2023/03/04 08:33:29;;;;;;;17.88;2.65;;;6.30;99.90;;;;;;4183463;28;20045;-85
2023/03/04 08:35:30;;;;;;;18.35;2.35;;;6.00;99.90;;;;;;4183286;28;20068;-85
2023/03/04 08:37:31;;;;;;;21.13;4.25;;;6.00;99.90;;;;;;4165431;28;20075;-85
2023/03/04 08:39:34;;;;;;;20.45;3.40;;;6.20;99.90;;;;;;4165614;28;20125;-85
2023/03/04 08:41:35;;;;;;;20.65;2.47;;;6.10;99.90;;;;;;4182740;28;20049;-85
2023/03/04 08:43:35;;;;;;;30.60;4.05;;;6.10;99.90;;;;;;4183713;28;20094;-84
2023/03/04 08:45:36;;;;;;;15.80;2.22;;;5.60;99.90;;;;;;4183457;28;20094;-85
2023/03/04 08:47:37;;;;;;;14.05;2.15;;;6.20;99.90;;;;;;4183248;28;20049;-84
2023/03/04 08:49:39;;;;;;;25.52;2.65;;;6.30;99.90;;;;;;4165586;28;20059;-85
2023/03/04 08:51:39;;;;;;;11.85;1.67;;;6.20;99.90;;;;;;4182796;28;20052;-84
2023/03/04 08:53:42;;;;;;;23.23;1.88;;;6.20;99.90;;;;;;4183236;28;20045;-85
2023/03/04 08:55:45;;;;;;;18.25;2.25;;;6.20;99.90;;;;;;4183293;28;20040;-85
2023/03/04 08:57:45;;;;;;;11.90;2.20;;;5.80;99.90;;;;;;4183324;28;20045;-85
2023/03/04 08:59:47;;;;;;;14.23;1.88;;;6.30;99.90;;;;;;4183131;28;20068;-85
2023/03/04 09:01:48;;;;;;;10.75;2.22;;;6.30;99.90;;;;;;4182516;28;20051;-85
2023/03/04 09:03:48;;;;;;;14.80;2.55;;;6.40;99.90;;;;;;4182283;28;20541;-85
2023/03/04 09:05:50;;;;;;;9.98;2.03;;;6.50;99.90;;;;;;4182831;28;20045;-85
2023/03/04 09:07:53;;;;;;;9.93;1.42;;;6.40;99.90;;;;;;4165783;28;20080;-85
2023/03/04 09:09:55;;;;;;;15.25;2.35;;;6.40;99.90;;;;;;4184239;28;20452;-84
2023/03/04 09:11:55;;;;;;;10.57;1.38;;;6.40;99.90;;;;;;4182256;28;20045;-85
2023/03/04 09:13:56;;;;;;;14.23;1.30;;;6.40;99.90;;;;;;4182930;28;20111;-85
2023/03/04 09:15:58;;;;;;;12.68;1.30;;;6.40;99.90;;;;;;4183374;28;20044;-85
2023/03/04 09:18:01;;;;;;;9.18;0.95;;;6.40;99.90;;;;;;4166033;28;20045;-85
2023/03/04 09:20:03;;;;;;;4.55;0.82;;;6.50;99.90;;;;;;4183707;28;20547;-84
2023/03/04 09:22:03;;;;;;;6.63;0.80;;;6.40;99.90;;;;;;4183512;28;20181;-85
2023/03/04 09:24:04;;;;;;;9.20;0.88;;;6.40;99.90;;;;;;4165732;28;20485;-84
2023/03/04 09:26:21;;;;;;;6.72;1.08;;;6.40;99.90;;;;;;4183294;28;20049;-85
2023/03/04 09:28:21;;;;;;;6.25;1.00;;;6.40;99.90;;;;;;4183223;28;20037;-85
2023/03/04 09:30:23;;;;;;;7.90;0.98;;;6.50;99.90;;;;;;4183308;28;20080;-85
2023/03/04 09:32:25;;;;;;;8.90;0.80;;;6.00;99.90;;;;;;4182861;28;20041;-84
2023/03/04 09:34:25;;;;;;;7.10;1.10;;;6.70;99.90;;;;;;4182092;28;20056;-84
2023/03/04 09:36:32;;;;;;;6.97;1.38;;;6.80;99.90;;;;;;4181854;28;20045;-84
2023/03/04 09:38:33;;;;;;;11.27;1.92;;;7.00;99.90;;;;;;4182116;28;20172;-84
2023/03/04 09:40:44;;;;;;;7.28;1.38;;;7.00;99.90;;;;;;4182210;28;20036;-84
2023/03/04 09:42:50;;;;;;;15.68;2.00;;;7.10;99.90;;;;;;4181777;28;20489;-84
2023/03/04 09:44:52;;;;;;;12.07;1.98;;;7.30;99.90;;;;;;4181920;28;20055;-85
2023/03/04 09:46:57;;;;;;;7.57;1.27;;;7.40;99.90;;;;;;4181689;28;20041;-85
2023/03/04 09:48:59;;;;;;;8.90;1.80;;;7.40;99.90;;;;;;4181724;28;20044;-84
2023/03/04 09:51:36;;;;;;;11.70;2.08;;;7.60;99.90;;;;;;4163823;28;20041;-85
2023/03/04 09:54:05;;;;;;;10.55;1.20;;;7.80;99.90;;;;;;4181900;28;20048;-85
2023/03/04 09:56:10;;;;;;;7.82;0.98;;;8.00;99.90;;;;;;4181898;28;20059;-85
2023/03/04 09:58:29;;;;;;;6.68;1.45;;;7.60;99.90;;;;;;4181520;28;20473;-85
2023/03/04 10:00:39;;;;;;;7.43;1.90;;;7.50;99.90;;;;;;4163980;28;20132;-84
2023/03/04 10:02:54;;;;;;;14.32;2.70;;;7.30;99.90;;;;;;4181911;28;20118;-85
2023/03/04 10:05:00;;;;;;;8.43;1.65;;;7.20;99.90;;;;;;4181860;28;20519;-84
2023/03/04 10:07:14;;;;;;;16.27;1.92;;;7.20;99.90;;;;;;4181920;28;20041;-85
2023/03/04 10:09:21;;;;;;;15.90;2.70;;;7.20;99.90;;;;;;4181995;28;20390;-85
2023/03/04 10:11:34;;;;;;;17.58;1.95;;;7.10;99.90;;;;;;4181822;28;20455;-85
2023/03/04 10:13:41;;;;;;;8.20;1.67;;;7.10;99.90;;;;;;4181718;28;20102;-85
2023/03/04 10:15:47;;;;;;;15.45;1.50;;;7.20;99.90;;;;;;4181145;28;20053;-85
2023/03/04 10:17:52;;;;;;;15.73;2.17;;;7.20;99.90;;;;;;4146944;28;20045;-85
2023/03/04 10:20:02;;;;;;;19.88;2.20;;;7.30;99.90;;;;;;4182526;28;20505;-85
2023/03/04 10:22:21;;;;;;;23.33;2.42;;;7.30;99.90;;;;;;4182070;28;20049;-84
2023/03/04 10:24:27;;;;;;;20.90;3.65;;;7.30;99.90;;;;;;4182082;28;20045;-84
2023/03/04 10:26:31;;;;;;;19.52;2.72;;;7.30;99.90;;;;;;4181595;28;20497;-84
2023/03/04 10:28:33;;;;;;;14.68;1.50;;;7.30;99.90;;;;;;4181381;28;20521;-84
2023/03/04 10:30:48;;;;;;;18.75;2.78;;;7.30;99.90;;;;;;4181267;28;20091;-85
2023/03/04 10:32:49;;;;;;;16.15;2.47;;;7.30;99.90;;;;;;4181308;28;20040;-85
2023/03/04 10:34:50;;;;;;;10.70;1.85;;;7.30;99.90;;;;;;4182167;28;20037;-84
2023/03/04 10:37:05;;;;;;;17.27;2.38;;;7.30;99.90;;;;;;4182514;28;20096;-84
2023/03/04 10:39:34;;;;;;;15.60;1.60;;;7.30;99.90;;;;;;4181983;28;20551;-84
2023/03/04 10:41:35;;;;;;;15.48;2.72;;;7.30;99.90;;;;;;4179565;28;20135;-84
2023/03/04 10:43:36;;;;;;;7.45;1.90;;;7.30;99.90;;;;;;4181677;28;20382;-85